sensor_id;sensor_type;location;lat;lon;timestamp;P1;durP1;ratioP1;P2;durP2;ratioP2
76403;SDS011;65232;48.358;2.122;2023-01-25T00:00:00;22.58;;;14.80;;
76403;SDS011;65232;48.358;2.122;2023-01-25T00:00:25;21.35;;;13.80;;
76403;SDS011;65232;48.358;2.122;2023-01-25T00:00:51;23.52;;;14.27;;
76403;SDS011;65232;48.358;2.122;2023-01-25T00:01:16;21.63;;;13.95;;
76403;SDS011;65232;48.358;2.122;2023-01-25T00:01:42;22.73;;;14.10;;
76403;SDS011;65232;48.358;2.122;2023-01-25T00:02:07;21.55;;;14.13;;
76403;SDS011;65232;48.358;2.122;2023-01-25T00:02:33;23.10;;;14.35;;
76403;SDS011;65232;48.358;2.122;2023-01-25T00:02:58;22.23;;;13.93;;
76403;SDS011;65232;48.358;2.122;2023-01-25T00:03:24;24.02;;;13.95;;
76403;SDS011;65232;48.358;2.122;2023-01-25T00:03:49;22.00;;;13.88;;
76403;SDS011;65232;48.358;2.122;2023-01-25T00:04:14;21.92;;;14.02;;
76403;SDS011;65232;48.358;2.122;2023-01-25T00:04:40;21.90;;;13.85;;
76403;SDS011;65232;48.358;2.122;2023-01-25T00:05:05;21.75;;;14.00;;
76403;SDS011;65232;48.358;2.122;2023-01-25T00:05:32;22.55;;;14.35;;
76403;SDS011;65232;48.358;2.122;2023-01-25T00:05:59;21.75;;;13.68;;
76403;SDS011;65232;48.358;2.122;2023-01-25T00:06:28;22.05;;;12.98;;
76403;SDS011;65232;48.358;2.122;2023-01-25T00:06:53;20.30;;;12.95;;
76403;SDS011;65232;48.358;2.122;2023-01-25T00:07:19;23.40;;;13.63;;
76403;SDS011;65232;48.358;2.122;2023-01-25T00:07:45;21.98;;;13.70;;
76403;SDS011;65232;48.358;2.122;2023-01-25T00:08:10;20.10;;;13.02;;
76403;SDS011;65232;48.358;2.122;2023-01-25T00:08:37;22.40;;;13.68;;
76403;SDS011;65232;48.358;2.122;2023-01-25T00:09:02;18.70;;;12.98;;
76403;SDS011;65232;48.358;2.122;2023-01-25T00:09:28;20.33;;;12.77;;
76403;SDS011;65232;48.358;2.122;2023-01-25T00:09:54;21.73;;;13.18;;
76403;SDS011;65232;48.358;2.122;2023-01-25T00:10:19;19.83;;;12.65;;
76403;SDS011;65232;48.358;2.122;2023-01-25T00:10:49;21.50;;;13.90;;
76403;SDS011;65232;48.358;2.122;2023-01-25T00:11:15;20.13;;;12.80;;
76403;SDS011;65232;48.358;2.122;2023-01-25T00:11:42;20.95;;;13.38;;
76403;SDS011;65232;48.358;2.122;2023-01-25T00:12:08;21.55;;;13.65;;
76403;SDS011;65232;48.358;2.122;2023-01-25T00:12:33;22.23;;;13.73;;
76403;SDS011;65232;48.358;2.122;2023-01-25T00:12:59;20.85;;;12.75;;
76403;SDS011;65232;48.358;2.122;2023-01-25T00:13:24;21.35;;;13.57;;
76403;SDS011;65232;48.358;2.122;2023-01-25T00:13:54;19.60;;;12.70;;
76403;SDS011;65232;48.358;2.122;2023-01-25T00:14:19;21.40;;;13.38;;
76403;SDS011;65232;48.358;2.122;2023-01-25T00:14:44;21.33;;;13.73;;
76403;SDS011;65232;48.358;2.122;2023-01-25T00:15:10;22.92;;;13.80;;
76403;SDS011;65232;48.358;2.122;2023-01-25T00:15:36;22.77;;;14.02;;
76403;SDS011;65232;48.358;2.122;2023-01-25T00:16:02;23.80;;;14.07;;
76403;SDS011;65232;48.358;2.122;2023-01-25T00:16:28;23.58;;;14.73;;
76403;SDS011;65232;48.358;2.122;2023-01-25T00:16:54;27.75;;;16.40;;
76403;SDS011;65232;48.358;2.122;2023-01-25T00:17:19;25.92;;;15.10;;
76403;SDS011;65232;48.358;2.122;2023-01-25T00:17:45;25.33;;;15.73;;
76403;SDS011;65232;48.358;2.122;2023-01-25T00:18:10;25.05;;;14.82;;
76403;SDS011;65232;48.358;2.122;2023-01-25T00:18:36;21.90;;;14.35;;
76403;SDS011;65232;48.358;2.122;2023-01-25T00:19:01;25.40;;;14.63;;
76403;SDS011;65232;48.358;2.122;2023-01-25T00:19:27;26.00;;;15.95;;
76403;SDS011;65232;48.358;2.122;2023-01-25T00:19:53;27.38;;;15.40;;
76403;SDS011;65232;48.358;2.122;2023-01-25T00:20:18;22.08;;;13.60;;
76403;SDS011;65232;48.358;2.122;2023-01-25T00:20:43;23.02;;;14.45;;
76403;SDS011;65232;48.358;2.122;2023-01-25T00:21:16;24.50;;;14.77;;
76403;SDS011;65232;48.358;2.122;2023-01-25T00:21:43;23.63;;;14.18;;
76403;SDS011;65232;48.358;2.122;2023-01-25T00:22:09;20.98;;;12.95;;
76403;SDS011;65232;48.358;2.122;2023-01-25T00:22:34;24.75;;;14.10;;
76403;SDS011;65232;48.358;2.122;2023-01-25T00:23:00;25.45;;;13.98;;
76403;SDS011;65232;48.358;2.122;2023-01-25T00:23:25;25.15;;;13.77;;
76403;SDS011;65232;48.358;2.122;2023-01-25T00:23:51;26.88;;;16.00;;
76403;SDS011;65232;48.358;2.122;2023-01-25T00:24:16;25.67;;;14.35;;
76403;SDS011;65232;48.358;2.122;2023-01-25T00:24:42;25.40;;;14.15;;
76403;SDS011;65232;48.358;2.122;2023-01-25T00:25:07;23.88;;;14.88;;
76403;SDS011;65232;48.358;2.122;2023-01-25T00:25:33;23.58;;;13.98;;
76403;SDS011;65232;48.358;2.122;2023-01-25T00:25:59;25.00;;;14.20;;
76403;SDS011;65232;48.358;2.122;2023-01-25T00:26:24;27.63;;;15.43;;
76403;SDS011;65232;48.358;2.122;2023-01-25T00:26:49;24.35;;;14.40;;
76403;SDS011;65232;48.358;2.122;2023-01-25T00:27:15;24.83;;;14.35;;
76403;SDS011;65232;48.358;2.122;2023-01-25T00:27:41;21.05;;;12.90;;
76403;SDS011;65232;48.358;2.122;2023-01-25T00:28:06;21.73;;;13.25;;
76403;SDS011;65232;48.358;2.122;2023-01-25T00:28:32;22.30;;;12.60;;
76403;SDS011;65232;48.358;2.122;2023-01-25T00:28:57;23.60;;;14.43;;
76403;SDS011;65232;48.358;2.122;2023-01-25T00:29:23;21.60;;;13.52;;
76403;SDS011;65232;48.358;2.122;2023-01-25T00:29:48;21.90;;;13.73;;
76403;SDS011;65232;48.358;2.122;2023-01-25T00:30:14;22.13;;;13.40;;
76403;SDS011;65232;48.358;2.122;2023-01-25T00:30:39;24.67;;;13.77;;
76403;SDS011;65232;48.358;2.122;2023-01-25T00:31:05;21.73;;;13.70;;
76403;SDS011;65232;48.358;2.122;2023-01-25T00:32:35;22.00;;;13.02;;
76403;SDS011;65232;48.358;2.122;2023-01-25T00:34:47;20.55;;;10.55;;
76403;SDS011;65232;48.358;2.122;2023-01-25T00:35:14;20.58;;;11.43;;
76403;SDS011;65232;48.358;2.122;2023-01-25T00:35:39;20.73;;;12.15;;
76403;SDS011;65232;48.358;2.122;2023-01-25T00:36:25;20.95;;;12.20;;
76403;SDS011;65232;48.358;2.122;2023-01-25T00:37:35;20.45;;;11.77;;
76403;SDS011;65232;48.358;2.122;2023-01-25T00:38:05;19.17;;;11.43;;
76403;SDS011;65232;48.358;2.122;2023-01-25T00:38:51;18.85;;;11.30;;
76403;SDS011;65232;48.358;2.122;2023-01-25T00:39:18;20.88;;;13.02;;
76403;SDS011;65232;48.358;2.122;2023-01-25T00:39:44;19.33;;;12.13;;
76403;SDS011;65232;48.358;2.122;2023-01-25T00:40:37;20.48;;;12.50;;
76403;SDS011;65232;48.358;2.122;2023-01-25T00:41:04;21.30;;;12.38;;
76403;SDS011;65232;48.358;2.122;2023-01-25T00:41:29;21.95;;;13.05;;
76403;SDS011;65232;48.358;2.122;2023-01-25T00:41:55;19.00;;;12.15;;
76403;SDS011;65232;48.358;2.122;2023-01-25T00:42:21;23.35;;;12.98;;
76403;SDS011;65232;48.358;2.122;2023-01-25T00:42:47;21.70;;;13.07;;
76403;SDS011;65232;48.358;2.122;2023-01-25T00:43:12;23.88;;;14.02;;
76403;SDS011;65232;48.358;2.122;2023-01-25T00:43:38;21.80;;;12.85;;
76403;SDS011;65232;48.358;2.122;2023-01-25T00:44:04;21.42;;;13.60;;
76403;SDS011;65232;48.358;2.122;2023-01-25T00:44:30;20.58;;;12.82;;
76403;SDS011;65232;48.358;2.122;2023-01-25T00:44:56;22.50;;;13.70;;
76403;SDS011;65232;48.358;2.122;2023-01-25T00:45:21;20.08;;;12.73;;
76403;SDS011;65232;48.358;2.122;2023-01-25T00:45:47;22.83;;;14.18;;
76403;SDS011;65232;48.358;2.122;2023-01-25T00:46:15;23.10;;;14.38;;
76403;SDS011;65232;48.358;2.122;2023-01-25T00:46:42;19.45;;;13.25;;
76403;SDS011;65232;48.358;2.122;2023-01-25T00:47:10;23.02;;;14.05;;
76403;SDS011;65232;48.358;2.122;2023-01-25T00:47:36;21.35;;;13.88;;
76403;SDS011;65232;48.358;2.122;2023-01-25T00:48:02;21.63;;;13.43;;
76403;SDS011;65232;48.358;2.122;2023-01-25T00:48:30;21.88;;;14.20;;
76403;SDS011;65232;48.358;2.122;2023-01-25T00:48:58;21.52;;;14.23;;
76403;SDS011;65232;48.358;2.122;2023-01-25T00:49:25;19.00;;;13.30;;
76403;SDS011;65232;48.358;2.122;2023-01-25T00:49:52;21.70;;;13.70;;
76403;SDS011;65232;48.358;2.122;2023-01-25T00:50:18;23.00;;;13.95;;
76403;SDS011;65232;48.358;2.122;2023-01-25T00:50:43;22.42;;;14.95;;
76403;SDS011;65232;48.358;2.122;2023-01-25T00:51:09;22.73;;;14.07;;
76403;SDS011;65232;48.358;2.122;2023-01-25T00:51:34;24.80;;;14.65;;
76403;SDS011;65232;48.358;2.122;2023-01-25T00:52:00;22.63;;;14.27;;
76403;SDS011;65232;48.358;2.122;2023-01-25T00:52:26;22.35;;;13.73;;
76403;SDS011;65232;48.358;2.122;2023-01-25T00:52:52;20.88;;;13.15;;
76403;SDS011;65232;48.358;2.122;2023-01-25T00:53:18;24.48;;;14.40;;
76403;SDS011;65232;48.358;2.122;2023-01-25T00:53:43;21.38;;;13.35;;
76403;SDS011;65232;48.358;2.122;2023-01-25T00:54:09;22.60;;;14.30;;
76403;SDS011;65232;48.358;2.122;2023-01-25T00:54:34;22.48;;;13.73;;
76403;SDS011;65232;48.358;2.122;2023-01-25T00:55:00;19.10;;;12.68;;
76403;SDS011;65232;48.358;2.122;2023-01-25T00:55:25;22.52;;;13.88;;
76403;SDS011;65232;48.358;2.122;2023-01-25T00:55:51;21.90;;;13.93;;
76403;SDS011;65232;48.358;2.122;2023-01-25T00:56:43;23.77;;;13.27;;
76403;SDS011;65232;48.358;2.122;2023-01-25T00:57:09;21.83;;;13.20;;
76403;SDS011;65232;48.358;2.122;2023-01-25T00:57:35;23.55;;;14.60;;
76403;SDS011;65232;48.358;2.122;2023-01-25T00:58:00;22.15;;;13.43;;
76403;SDS011;65232;48.358;2.122;2023-01-25T00:58:26;20.55;;;13.10;;
76403;SDS011;65232;48.358;2.122;2023-01-25T00:58:51;22.02;;;13.45;;
76403;SDS011;65232;48.358;2.122;2023-01-25T00:59:18;23.98;;;14.90;;
76403;SDS011;65232;48.358;2.122;2023-01-25T00:59:44;23.35;;;14.13;;
76403;SDS011;65232;48.358;2.122;2023-01-25T01:00:13;20.00;;;13.82;;
76403;SDS011;65232;48.358;2.122;2023-01-25T01:00:38;22.00;;;13.90;;
76403;SDS011;65232;48.358;2.122;2023-01-25T01:01:04;21.77;;;14.32;;
76403;SDS011;65232;48.358;2.122;2023-01-25T01:01:29;23.38;;;13.70;;
76403;SDS011;65232;48.358;2.122;2023-01-25T01:01:55;21.40;;;13.88;;
76403;SDS011;65232;48.358;2.122;2023-01-25T01:02:21;22.40;;;14.05;;
76403;SDS011;65232;48.358;2.122;2023-01-25T01:02:46;22.35;;;13.65;;
76403;SDS011;65232;48.358;2.122;2023-01-25T01:03:13;21.15;;;13.98;;
76403;SDS011;65232;48.358;2.122;2023-01-25T01:03:38;22.08;;;13.77;;
76403;SDS011;65232;48.358;2.122;2023-01-25T01:04:05;22.80;;;14.50;;
76403;SDS011;65232;48.358;2.122;2023-01-25T01:04:31;22.65;;;14.00;;
76403;SDS011;65232;48.358;2.122;2023-01-25T01:04:56;23.17;;;14.70;;
76403;SDS011;65232;48.358;2.122;2023-01-25T01:05:22;22.23;;;13.75;;
76403;SDS011;65232;48.358;2.122;2023-01-25T01:05:47;20.88;;;12.93;;
76403;SDS011;65232;48.358;2.122;2023-01-25T01:06:13;22.58;;;14.48;;
76403;SDS011;65232;48.358;2.122;2023-01-25T01:06:38;26.70;;;15.45;;
76403;SDS011;65232;48.358;2.122;2023-01-25T01:07:05;21.02;;;13.93;;
76403;SDS011;65232;48.358;2.122;2023-01-25T01:07:30;22.38;;;14.23;;
76403;SDS011;65232;48.358;2.122;2023-01-25T01:07:56;24.92;;;15.05;;
76403;SDS011;65232;48.358;2.122;2023-01-25T01:08:21;22.95;;;14.02;;
76403;SDS011;65232;48.358;2.122;2023-01-25T01:08:47;24.50;;;14.50;;
76403;SDS011;65232;48.358;2.122;2023-01-25T01:09:14;23.88;;;13.98;;
76403;SDS011;65232;48.358;2.122;2023-01-25T01:09:41;23.75;;;14.60;;
76403;SDS011;65232;48.358;2.122;2023-01-25T01:10:06;23.15;;;14.95;;
76403;SDS011;65232;48.358;2.122;2023-01-25T01:10:32;25.35;;;15.38;;
76403;SDS011;65232;48.358;2.122;2023-01-25T01:11:01;24.58;;;15.82;;
76403;SDS011;65232;48.358;2.122;2023-01-25T01:11:29;25.00;;;16.00;;
76403;SDS011;65232;48.358;2.122;2023-01-25T01:11:55;26.95;;;16.25;;
76403;SDS011;65232;48.358;2.122;2023-01-25T01:12:21;23.50;;;15.52;;
76403;SDS011;65232;48.358;2.122;2023-01-25T01:12:46;23.80;;;14.38;;
76403;SDS011;65232;48.358;2.122;2023-01-25T01:13:12;25.05;;;14.77;;
76403;SDS011;65232;48.358;2.122;2023-01-25T01:13:39;22.60;;;14.10;;
76403;SDS011;65232;48.358;2.122;2023-01-25T01:14:04;23.63;;;14.88;;
76403;SDS011;65232;48.358;2.122;2023-01-25T01:14:30;25.95;;;15.63;;
76403;SDS011;65232;48.358;2.122;2023-01-25T01:14:55;24.90;;;15.50;;
76403;SDS011;65232;48.358;2.122;2023-01-25T01:15:21;24.25;;;14.93;;
76403;SDS011;65232;48.358;2.122;2023-01-25T01:15:46;23.23;;;14.50;;
76403;SDS011;65232;48.358;2.122;2023-01-25T01:16:12;27.13;;;14.93;;
76403;SDS011;65232;48.358;2.122;2023-01-25T01:16:37;26.13;;;15.80;;
76403;SDS011;65232;48.358;2.122;2023-01-25T01:17:03;24.90;;;14.30;;
76403;SDS011;65232;48.358;2.122;2023-01-25T01:17:28;25.45;;;15.38;;
76403;SDS011;65232;48.358;2.122;2023-01-25T01:17:54;25.00;;;15.40;;
76403;SDS011;65232;48.358;2.122;2023-01-25T01:18:20;25.30;;;15.63;;
76403;SDS011;65232;48.358;2.122;2023-01-25T01:18:45;24.83;;;15.20;;
76403;SDS011;65232;48.358;2.122;2023-01-25T01:19:11;23.80;;;14.93;;
76403;SDS011;65232;48.358;2.122;2023-01-25T01:19:37;26.42;;;15.35;;
76403;SDS011;65232;48.358;2.122;2023-01-25T01:20:03;24.77;;;15.55;;
76403;SDS011;65232;48.358;2.122;2023-01-25T01:20:28;24.98;;;15.50;;
76403;SDS011;65232;48.358;2.122;2023-01-25T01:20:54;25.70;;;15.32;;
76403;SDS011;65232;48.358;2.122;2023-01-25T01:21:20;27.67;;;16.77;;
76403;SDS011;65232;48.358;2.122;2023-01-25T01:21:45;27.85;;;16.05;;
76403;SDS011;65232;48.358;2.122;2023-01-25T01:22:11;24.10;;;15.38;;
76403;SDS011;65232;48.358;2.122;2023-01-25T01:22:36;25.10;;;15.48;;
76403;SDS011;65232;48.358;2.122;2023-01-25T01:23:02;28.40;;;16.98;;
76403;SDS011;65232;48.358;2.122;2023-01-25T01:23:28;28.23;;;16.67;;
76403;SDS011;65232;48.358;2.122;2023-01-25T01:23:53;27.58;;;16.50;;
76403;SDS011;65232;48.358;2.122;2023-01-25T01:24:19;29.23;;;16.75;;
76403;SDS011;65232;48.358;2.122;2023-01-25T01:24:46;28.13;;;16.65;;
76403;SDS011;65232;48.358;2.122;2023-01-25T01:25:12;31.33;;;17.88;;
76403;SDS011;65232;48.358;2.122;2023-01-25T01:25:38;28.80;;;17.33;;
76403;SDS011;65232;48.358;2.122;2023-01-25T01:26:05;32.80;;;18.77;;
76403;SDS011;65232;48.358;2.122;2023-01-25T01:26:32;32.75;;;18.35;;
76403;SDS011;65232;48.358;2.122;2023-01-25T01:26:58;31.98;;;18.45;;
76403;SDS011;65232;48.358;2.122;2023-01-25T01:27:23;30.52;;;17.83;;
76403;SDS011;65232;48.358;2.122;2023-01-25T01:27:49;29.15;;;17.95;;
76403;SDS011;65232;48.358;2.122;2023-01-25T01:28:14;27.45;;;17.05;;
76403;SDS011;65232;48.358;2.122;2023-01-25T01:28:40;27.48;;;16.40;;
76403;SDS011;65232;48.358;2.122;2023-01-25T01:29:07;27.20;;;15.85;;
76403;SDS011;65232;48.358;2.122;2023-01-25T01:29:34;27.17;;;15.90;;
76403;SDS011;65232;48.358;2.122;2023-01-25T01:29:59;26.20;;;15.23;;
76403;SDS011;65232;48.358;2.122;2023-01-25T01:30:25;27.48;;;15.73;;
76403;SDS011;65232;48.358;2.122;2023-01-25T01:30:50;25.23;;;15.93;;
76403;SDS011;65232;48.358;2.122;2023-01-25T01:31:18;24.63;;;15.70;;
76403;SDS011;65232;48.358;2.122;2023-01-25T01:31:54;23.23;;;13.63;;
76403;SDS011;65232;48.358;2.122;2023-01-25T01:32:22;23.55;;;14.25;;
76403;SDS011;65232;48.358;2.122;2023-01-25T01:32:50;23.05;;;14.70;;
76403;SDS011;65232;48.358;2.122;2023-01-25T01:33:16;24.50;;;15.45;;
76403;SDS011;65232;48.358;2.122;2023-01-25T01:33:42;24.35;;;15.00;;
76403;SDS011;65232;48.358;2.122;2023-01-25T01:34:09;25.77;;;15.32;;
76403;SDS011;65232;48.358;2.122;2023-01-25T01:34:38;22.10;;;13.93;;
76403;SDS011;65232;48.358;2.122;2023-01-25T01:35:04;22.05;;;14.55;;
76403;SDS011;65232;48.358;2.122;2023-01-25T01:35:56;23.40;;;14.02;;
76403;SDS011;65232;48.358;2.122;2023-01-25T01:36:22;25.27;;;14.88;;
76403;SDS011;65232;48.358;2.122;2023-01-25T01:36:49;25.85;;;15.15;;
76403;SDS011;65232;48.358;2.122;2023-01-25T01:37:15;25.55;;;16.02;;
76403;SDS011;65232;48.358;2.122;2023-01-25T01:37:41;23.00;;;14.35;;
76403;SDS011;65232;48.358;2.122;2023-01-25T01:38:06;25.13;;;15.57;;
76403;SDS011;65232;48.358;2.122;2023-01-25T01:38:32;24.77;;;14.05;;
76403;SDS011;65232;48.358;2.122;2023-01-25T01:38:57;25.63;;;16.00;;
76403;SDS011;65232;48.358;2.122;2023-01-25T01:39:23;25.15;;;15.40;;
76403;SDS011;65232;48.358;2.122;2023-01-25T01:39:50;26.10;;;15.48;;
76403;SDS011;65232;48.358;2.122;2023-01-25T01:40:16;25.10;;;15.60;;
76403;SDS011;65232;48.358;2.122;2023-01-25T01:40:44;23.67;;;14.98;;
76403;SDS011;65232;48.358;2.122;2023-01-25T01:41:11;23.83;;;15.68;;
76403;SDS011;65232;48.358;2.122;2023-01-25T01:41:37;25.27;;;15.32;;
76403;SDS011;65232;48.358;2.122;2023-01-25T01:42:04;25.77;;;15.63;;
76403;SDS011;65232;48.358;2.122;2023-01-25T01:42:29;25.90;;;16.50;;
76403;SDS011;65232;48.358;2.122;2023-01-25T01:43:02;25.90;;;15.75;;
76403;SDS011;65232;48.358;2.122;2023-01-25T01:43:33;25.10;;;15.55;;
76403;SDS011;65232;48.358;2.122;2023-01-25T01:44:43;22.33;;;13.00;;
76403;SDS011;65232;48.358;2.122;2023-01-25T01:46:57;20.42;;;12.55;;
76403;SDS011;65232;48.358;2.122;2023-01-25T01:47:40;21.38;;;13.20;;
76403;SDS011;65232;48.358;2.122;2023-01-25T01:48:12;22.08;;;13.70;;
76403;SDS011;65232;48.358;2.122;2023-01-25T01:49:23;20.35;;;12.52;;
76403;SDS011;65232;48.358;2.122;2023-01-25T01:49:54;23.92;;;13.00;;
76403;SDS011;65232;48.358;2.122;2023-01-25T01:50:27;22.80;;;12.90;;
76403;SDS011;65232;48.358;2.122;2023-01-25T01:50:54;23.70;;;13.63;;
76403;SDS011;65232;48.358;2.122;2023-01-25T01:51:57;23.98;;;14.40;;
76403;SDS011;65232;48.358;2.122;2023-01-25T01:52:28;23.35;;;14.05;;
76403;SDS011;65232;48.358;2.122;2023-01-25T01:52:56;24.50;;;14.80;;
76403;SDS011;65232;48.358;2.122;2023-01-25T01:53:22;23.92;;;14.98;;
76403;SDS011;65232;48.358;2.122;2023-01-25T01:53:51;22.73;;;13.38;;
76403;SDS011;65232;48.358;2.122;2023-01-25T01:54:22;22.63;;;13.90;;
76403;SDS011;65232;48.358;2.122;2023-01-25T01:54:55;24.17;;;13.95;;
76403;SDS011;65232;48.358;2.122;2023-01-25T01:55:26;24.35;;;14.90;;
76403;SDS011;65232;48.358;2.122;2023-01-25T01:56:24;23.38;;;13.20;;
76403;SDS011;65232;48.358;2.122;2023-01-25T01:56:57;25.23;;;14.05;;
76403;SDS011;65232;48.358;2.122;2023-01-25T01:57:33;24.23;;;12.82;;
76403;SDS011;65232;48.358;2.122;2023-01-25T01:58:05;21.80;;;13.43;;
76403;SDS011;65232;48.358;2.122;2023-01-25T01:58:32;25.98;;;14.65;;
76403;SDS011;65232;48.358;2.122;2023-01-25T01:58:58;24.15;;;14.38;;
76403;SDS011;65232;48.358;2.122;2023-01-25T01:59:26;25.60;;;15.15;;
76403;SDS011;65232;48.358;2.122;2023-01-25T01:59:59;22.75;;;13.43;;
76403;SDS011;65232;48.358;2.122;2023-01-25T02:00:38;22.98;;;13.90;;
76403;SDS011;65232;48.358;2.122;2023-01-25T02:01:05;21.17;;;13.73;;
76403;SDS011;65232;48.358;2.122;2023-01-25T02:01:31;21.60;;;12.88;;
76403;SDS011;65232;48.358;2.122;2023-01-25T02:01:57;22.38;;;14.15;;
76403;SDS011;65232;48.358;2.122;2023-01-25T02:02:23;25.15;;;15.27;;
76403;SDS011;65232;48.358;2.122;2023-01-25T02:02:50;26.75;;;15.20;;
76403;SDS011;65232;48.358;2.122;2023-01-25T02:03:16;24.48;;;14.93;;
76403;SDS011;65232;48.358;2.122;2023-01-25T02:03:43;22.85;;;14.32;;
76403;SDS011;65232;48.358;2.122;2023-01-25T02:04:09;23.48;;;14.30;;
76403;SDS011;65232;48.358;2.122;2023-01-25T02:04:37;23.58;;;15.43;;
76403;SDS011;65232;48.358;2.122;2023-01-25T02:05:09;24.25;;;14.95;;
76403;SDS011;65232;48.358;2.122;2023-01-25T02:05:46;25.20;;;15.55;;
76403;SDS011;65232;48.358;2.122;2023-01-25T02:07:04;24.88;;;14.60;;
76403;SDS011;65232;48.358;2.122;2023-01-25T02:07:37;23.88;;;15.15;;
76403;SDS011;65232;48.358;2.122;2023-01-25T02:08:03;26.35;;;15.98;;
76403;SDS011;65232;48.358;2.122;2023-01-25T02:08:32;25.40;;;15.52;;
76403;SDS011;65232;48.358;2.122;2023-01-25T02:09:00;24.77;;;16.30;;
76403;SDS011;65232;48.358;2.122;2023-01-25T02:09:27;25.83;;;16.70;;
76403;SDS011;65232;48.358;2.122;2023-01-25T02:09:55;27.25;;;16.63;;
76403;SDS011;65232;48.358;2.122;2023-01-25T02:10:23;27.65;;;17.42;;
76403;SDS011;65232;48.358;2.122;2023-01-25T02:10:52;29.27;;;17.63;;
76403;SDS011;65232;48.358;2.122;2023-01-25T02:11:18;28.48;;;17.55;;
76403;SDS011;65232;48.358;2.122;2023-01-25T02:11:45;28.92;;;17.10;;
76403;SDS011;65232;48.358;2.122;2023-01-25T02:12:11;27.80;;;17.45;;
76403;SDS011;65232;48.358;2.122;2023-01-25T02:12:38;25.40;;;15.95;;
76403;SDS011;65232;48.358;2.122;2023-01-25T02:13:06;27.08;;;16.60;;
76403;SDS011;65232;48.358;2.122;2023-01-25T02:13:31;28.60;;;18.05;;
76403;SDS011;65232;48.358;2.122;2023-01-25T02:13:59;27.15;;;16.55;;
76403;SDS011;65232;48.358;2.122;2023-01-25T02:14:27;26.60;;;15.95;;
76403;SDS011;65232;48.358;2.122;2023-01-25T02:14:53;27.30;;;16.48;;
76403;SDS011;65232;48.358;2.122;2023-01-25T02:15:19;24.48;;;16.23;;
76403;SDS011;65232;48.358;2.122;2023-01-25T02:15:48;26.10;;;16.65;;
76403;SDS011;65232;48.358;2.122;2023-01-25T02:16:16;29.15;;;18.42;;
76403;SDS011;65232;48.358;2.122;2023-01-25T02:16:46;27.63;;;15.50;;
76403;SDS011;65232;48.358;2.122;2023-01-25T02:17:12;23.55;;;15.35;;
76403;SDS011;65232;48.358;2.122;2023-01-25T02:17:37;24.23;;;14.90;;
76403;SDS011;65232;48.358;2.122;2023-01-25T02:18:04;25.08;;;15.48;;
76403;SDS011;65232;48.358;2.122;2023-01-25T02:18:31;24.27;;;15.40;;
76403;SDS011;65232;48.358;2.122;2023-01-25T02:18:57;24.63;;;15.05;;
76403;SDS011;65232;48.358;2.122;2023-01-25T02:21:09;26.83;;;14.57;;
76403;SDS011;65232;48.358;2.122;2023-01-25T02:21:37;25.73;;;15.07;;
76403;SDS011;65232;48.358;2.122;2023-01-25T02:22:09;24.50;;;14.07;;
76403;SDS011;65232;48.358;2.122;2023-01-25T02:22:44;23.45;;;13.70;;
76403;SDS011;65232;48.358;2.122;2023-01-25T02:23:25;22.90;;;13.63;;
76403;SDS011;65232;48.358;2.122;2023-01-25T02:24:06;23.15;;;12.40;;
76403;SDS011;65232;48.358;2.122;2023-01-25T02:24:37;24.15;;;13.80;;
76403;SDS011;65232;48.358;2.122;2023-01-25T02:25:12;23.40;;;12.77;;
76403;SDS011;65232;48.358;2.122;2023-01-25T02:25:40;22.30;;;12.95;;
76403;SDS011;65232;48.358;2.122;2023-01-25T02:26:06;24.05;;;13.82;;
76403;SDS011;65232;48.358;2.122;2023-01-25T02:26:58;22.67;;;12.80;;
76403;SDS011;65232;48.358;2.122;2023-01-25T02:27:24;23.00;;;13.30;;
76403;SDS011;65232;48.358;2.122;2023-01-25T02:27:50;23.48;;;13.65;;
76403;SDS011;65232;48.358;2.122;2023-01-25T02:28:38;22.83;;;13.55;;
76403;SDS011;65232;48.358;2.122;2023-01-25T02:29:07;23.48;;;13.73;;
76403;SDS011;65232;48.358;2.122;2023-01-25T02:29:34;25.60;;;14.88;;
76403;SDS011;65232;48.358;2.122;2023-01-25T02:30:01;24.63;;;13.73;;
76403;SDS011;65232;48.358;2.122;2023-01-25T02:30:27;23.00;;;14.15;;
76403;SDS011;65232;48.358;2.122;2023-01-25T02:30:53;26.00;;;15.55;;
76403;SDS011;65232;48.358;2.122;2023-01-25T02:31:18;24.95;;;15.02;;
76403;SDS011;65232;48.358;2.122;2023-01-25T02:31:44;23.65;;;14.70;;
76403;SDS011;65232;48.358;2.122;2023-01-25T02:32:12;24.98;;;15.52;;
76403;SDS011;65232;48.358;2.122;2023-01-25T02:32:37;26.73;;;15.80;;
76403;SDS011;65232;48.358;2.122;2023-01-25T02:33:03;23.58;;;14.68;;
76403;SDS011;65232;48.358;2.122;2023-01-25T02:33:28;23.05;;;14.60;;
76403;SDS011;65232;48.358;2.122;2023-01-25T02:33:54;23.83;;;14.65;;
76403;SDS011;65232;48.358;2.122;2023-01-25T02:34:19;25.20;;;15.63;;
76403;SDS011;65232;48.358;2.122;2023-01-25T02:34:45;25.25;;;15.10;;
76403;SDS011;65232;48.358;2.122;2023-01-25T02:35:20;24.48;;;14.68;;
76403;SDS011;65232;48.358;2.122;2023-01-25T02:35:49;23.85;;;14.27;;
76403;SDS011;65232;48.358;2.122;2023-01-25T02:36:22;22.88;;;14.43;;
76403;SDS011;65232;48.358;2.122;2023-01-25T02:36:50;26.23;;;16.17;;
76403;SDS011;65232;48.358;2.122;2023-01-25T02:37:15;24.85;;;15.15;;
76403;SDS011;65232;48.358;2.122;2023-01-25T02:37:41;24.52;;;16.42;;
76403;SDS011;65232;48.358;2.122;2023-01-25T02:38:07;25.38;;;15.32;;
76403;SDS011;65232;48.358;2.122;2023-01-25T02:38:42;25.10;;;15.15;;
76403;SDS011;65232;48.358;2.122;2023-01-25T02:39:12;22.42;;;14.25;;
76403;SDS011;65232;48.358;2.122;2023-01-25T02:39:42;25.88;;;14.88;;
76403;SDS011;65232;48.358;2.122;2023-01-25T02:40:08;27.55;;;15.02;;
76403;SDS011;65232;48.358;2.122;2023-01-25T02:40:35;28.42;;;14.98;;
76403;SDS011;65232;48.358;2.122;2023-01-25T02:41:19;24.38;;;15.05;;
76403;SDS011;65232;48.358;2.122;2023-01-25T02:41:48;22.60;;;14.13;;
76403;SDS011;65232;48.358;2.122;2023-01-25T02:42:14;23.58;;;14.60;;
76403;SDS011;65232;48.358;2.122;2023-01-25T02:42:42;25.90;;;15.23;;
76403;SDS011;65232;48.358;2.122;2023-01-25T02:43:11;22.92;;;13.45;;
76403;SDS011;65232;48.358;2.122;2023-01-25T02:43:36;24.48;;;14.43;;
76403;SDS011;65232;48.358;2.122;2023-01-25T02:44:04;24.33;;;15.23;;
76403;SDS011;65232;48.358;2.122;2023-01-25T02:44:32;24.55;;;15.18;;
76403;SDS011;65232;48.358;2.122;2023-01-25T02:44:58;24.70;;;15.07;;
76403;SDS011;65232;48.358;2.122;2023-01-25T02:45:24;23.65;;;14.60;;
76403;SDS011;65232;48.358;2.122;2023-01-25T02:45:55;25.50;;;15.88;;
76403;SDS011;65232;48.358;2.122;2023-01-25T02:46:31;26.48;;;15.02;;
76403;SDS011;65232;48.358;2.122;2023-01-25T02:47:25;22.90;;;12.05;;
76403;SDS011;65232;48.358;2.122;2023-01-25T02:47:51;25.00;;;13.95;;
76403;SDS011;65232;48.358;2.122;2023-01-25T02:48:17;24.90;;;14.93;;
76403;SDS011;65232;48.358;2.122;2023-01-25T02:48:43;23.63;;;14.82;;
76403;SDS011;65232;48.358;2.122;2023-01-25T02:49:10;27.05;;;15.13;;
76403;SDS011;65232;48.358;2.122;2023-01-25T02:49:36;26.13;;;15.40;;
76403;SDS011;65232;48.358;2.122;2023-01-25T02:50:02;25.15;;;14.90;;
76403;SDS011;65232;48.358;2.122;2023-01-25T02:50:31;23.92;;;15.18;;
76403;SDS011;65232;48.358;2.122;2023-01-25T02:50:56;27.08;;;16.33;;
76403;SDS011;65232;48.358;2.122;2023-01-25T02:51:22;26.13;;;15.55;;